Time;durP1;ratioP1;P1;durP2;ratioP2;P2;SDS_P1;SDS_P2;PMS_P1;PMS_P2;Temp;Humidity;BMP_temperature;BMP_pressure;BME280_temperature;BME280_humidity;BME280_pressure;Samples;Min_cycle;Max_cycle;Signal;HPM_P1;HPM_P2
2023/05/12 00:01:15;;;;;;;0.10;0.10;;;;;;;;;;4915066;29;20087;-83
2023/05/12 00:03:41;;;;;;;0.10;0.10;;;;;;;;;;4921162;29;20035;-82
2023/05/12 00:06:06;;;;;;;0.10;0.10;;;;;;;;;;4918660;29;20471;-82
2023/05/12 00:08:32;;;;;;;0.10;0.10;;;;;;;;;;4918231;29;20399;-82
2023/05/12 00:10:57;;;;;;;0.10;0.10;;;;;;;;;;4921344;29;20478;-84
2023/05/12 00:13:23;;;;;;;0.10;0.10;;;;;;;;;;4923030;29;20093;-82
2023/05/12 00:15:51;;;;;;;0.10;0.10;;;;;;;;;;4920310;29;20032;-80
2023/05/12 00:18:16;;;;;;;0.10;0.10;;;;;;;;;;4906461;29;20040;-84
2023/05/12 00:20:42;;;;;;;0.10;0.10;;;;;;;;;;4902045;29;20075;-83
2023/05/12 00:23:07;;;;;;;0.10;0.10;;;;;;;;;;4919652;29;20060;-82
2023/05/12 00:25:33;;;;;;;0.10;0.10;;;;;;;;;;4920216;29;20499;-83
2023/05/12 00:27:58;;;;;;;0.10;0.10;;;;;;;;;;4912800;29;20083;-83
2023/05/12 00:30:24;;;;;;;0.10;0.10;;;;;;;;;;4901468;29;20043;-83
2023/05/12 00:32:49;;;;;;;0.10;0.10;;;;;;;;;;4918462;29;20080;-81
2023/05/12 00:35:16;;;;;;;0.10;0.10;;;;;;;;;;4917929;29;20047;-82
2023/05/12 00:37:42;;;;;;;0.10;0.10;;;;;;;;;;4916904;29;20028;-84
2023/05/12 00:40:08;;;;;;;0.10;0.10;;;;;;;;;;4917164;29;20027;-81
2023/05/12 00:42:34;;;;;;;0.20;0.20;;;;;;;;;;4917156;29;20036;-83
2023/05/12 00:45:00;;;;;;;0.10;0.10;;;;;;;;;;4914497;29;20024;-81
2023/05/12 00:47:26;;;;;;;0.13;0.13;;;;;;;;;;4917896;29;20259;-83
2023/05/12 00:49:51;;;;;;;0.10;0.10;;;;;;;;;;4924762;29;20040;-85
2023/05/12 00:52:17;;;;;;;0.20;0.20;;;;;;;;;;4924370;29;20083;-83
2023/05/12 00:54:43;;;;;;;0.10;0.10;;;;;;;;;;4922798;29;20040;-85
2023/05/12 00:57:09;;;;;;;0.10;0.10;;;;;;;;;;4914028;29;20028;-86
2023/05/12 00:59:35;;;;;;;0.10;0.10;;;;;;;;;;4909183;29;20398;-83
2023/05/12 01:02:00;;;;;;;0.30;0.30;;;;;;;;;;4927212;29;20076;-86
2023/05/12 01:04:26;;;;;;;0.10;0.10;;;;;;;;;;4928023;29;20039;-81
2023/05/12 01:07:04;;;;;;;0.10;0.10;;;;;;;;;;4918078;29;20040;-84
2023/05/12 01:09:30;;;;;;;0.20;0.20;;;;;;;;;;4909525;29;20130;-85
2023/05/12 01:11:55;;;;;;;0.10;0.10;;;;;;;;;;4911082;29;20035;-82
2023/05/12 01:14:20;;;;;;;0.10;0.10;;;;;;;;;;4933514;29;20046;-82
2023/05/12 01:16:51;;;;;;;0.10;0.10;;;;;;;;;;4924334;29;20039;-85
2023/05/12 01:19:36;;;;;;;0.10;0.10;;;;;;;;;;4924782;29;20867;-85
2023/05/12 01:22:02;;;;;;;0.10;0.10;;;;;;;;;;4923086;29;20036;-84
2023/05/12 01:24:32;;;;;;;0.10;0.10;;;;;;;;;;4929871;29;20038;-82
2023/05/12 01:26:58;;;;;;;0.10;0.10;;;;;;;;;;4904422;29;20506;-84
2023/05/12 01:29:24;;;;;;;0.10;0.10;;;;;;;;;;4908003;29;20032;-84
2023/05/12 01:31:50;;;;;;;0.13;0.13;;;;;;;;;;4931753;29;20035;-83
2023/05/12 01:34:17;;;;;;;0.10;0.10;;;;;;;;;;4932677;29;20055;-83
2023/05/12 01:36:43;;;;;;;0.10;0.10;;;;;;;;;;4921174;29;20032;-83
2023/05/12 01:39:08;;;;;;;0.10;0.10;;;;;;;;;;4920518;29;20039;-84
2023/05/12 01:41:33;;;;;;;0.10;0.10;;;;;;;;;;4928007;29;20063;-84
2023/05/12 01:43:59;;;;;;;0.10;0.10;;;;;;;;;;4934354;29;20020;-84
2023/05/12 01:46:24;;;;;;;0.13;0.13;;;;;;;;;;4927556;29;20032;-83
2023/05/12 01:48:49;;;;;;;0.20;0.20;;;;;;;;;;4929467;29;20043;-85
2023/05/12 01:51:15;;;;;;;0.20;0.20;;;;;;;;;;4895835;29;20025;-83
2023/05/12 01:53:40;;;;;;;0.10;0.10;;;;;;;;;;4921830;29;20028;-84
2023/05/12 01:56:05;;;;;;;0.10;0.10;;;;;;;;;;4915358;29;20069;-83
2023/05/12 01:58:31;;;;;;;0.20;0.20;;;;;;;;;;4918447;29;20028;-82
2023/05/12 02:00:56;;;;;;;0.10;0.10;;;;;;;;;;4908222;29;20036;-85
2023/05/12 02:03:21;;;;;;;0.10;0.10;;;;;;;;;;4922386;29;20031;-86
2023/05/12 02:05:47;;;;;;;0.10;0.10;;;;;;;;;;4921493;29;20028;-84
2023/05/12 02:08:12;;;;;;;0.10;0.10;;;;;;;;;;4922053;29;20020;-84
2023/05/12 02:10:37;;;;;;;0.10;0.10;;;;;;;;;;4916029;29;20698;-83
2023/05/12 02:13:03;;;;;;;0.10;0.10;;;;;;;;;;4930511;29;20106;-84
2023/05/12 02:15:28;;;;;;;0.10;0.10;;;;;;;;;;4925355;29;20127;-82
2023/05/12 02:17:54;;;;;;;0.10;0.10;;;;;;;;;;4924849;29;20036;-82
2023/05/12 02:20:19;;;;;;;0.15;0.15;;;;;;;;;;4921417;29;20036;-84
2023/05/12 02:22:44;;;;;;;0.10;0.10;;;;;;;;;;4906874;29;20039;-83
2023/05/12 02:25:10;;;;;;;0.10;0.10;;;;;;;;;;4934976;29;20040;-81
2023/05/12 02:27:35;;;;;;;0.10;0.10;;;;;;;;;;4937477;29;20024;-81
2023/05/12 02:30:01;;;;;;;0.10;0.10;;;;;;;;;;4932271;29;20079;-84
2023/05/12 02:32:27;;;;;;;0.35;0.35;;;;;;;;;;4900757;29;20024;-84
2023/05/12 02:34:54;;;;;;;0.32;0.32;;;;;;;;;;4907755;29;20024;-84
2023/05/12 02:37:19;;;;;;;0.10;0.10;;;;;;;;;;4921646;29;20097;-84
2023/05/12 02:39:45;;;;;;;0.15;0.15;;;;;;;;;;4921543;29;20035;-84
2023/05/12 02:42:10;;;;;;;0.20;0.20;;;;;;;;;;4922900;29;20082;-84
2023/05/12 02:44:35;;;;;;;0.10;0.10;;;;;;;;;;4919250;29;20032;-81
2023/05/12 02:47:01;;;;;;;0.10;0.10;;;;;;;;;;4889528;29;20075;-84
2023/05/12 02:49:26;;;;;;;0.10;0.10;;;;;;;;;;4920518;29;20135;-82
2023/05/12 02:51:51;;;;;;;0.10;0.10;;;;;;;;;;4915092;29;20028;-84
2023/05/12 02:54:17;;;;;;;0.17;0.17;;;;;;;;;;4905438;29;20028;-83
2023/05/12 02:56:42;;;;;;;0.10;0.10;;;;;;;;;;4909676;29;20510;-80
2023/05/12 02:59:07;;;;;;;0.20;0.20;;;;;;;;;;4923283;29;20052;-86
2023/05/12 03:01:33;;;;;;;0.10;0.10;;;;;;;;;;4937733;29;20032;-84
2023/05/12 03:03:58;;;;;;;0.10;0.10;;;;;;;;;;4917615;29;20077;-85
2023/05/12 03:06:23;;;;;;;0.10;0.10;;;;;;;;;;4922649;29;20032;-84
2023/05/12 03:08:49;;;;;;;0.10;0.10;;;;;;;;;;4902175;29;20055;-83
2023/05/12 03:11:14;;;;;;;0.10;0.10;;;;;;;;;;4906565;29;20028;-84
2023/05/12 03:13:39;;;;;;;0.10;0.10;;;;;;;;;;4917454;29;20092;-83
2023/05/12 03:16:05;;;;;;;0.13;0.13;;;;;;;;;;4938824;29;20025;-81
2023/05/12 03:18:30;;;;;;;0.10;0.10;;;;;;;;;;4940680;29;20486;-83
2023/05/12 03:20:56;;;;;;;0.17;0.17;;;;;;;;;;4925624;29;20035;-82
2023/05/12 03:23:21;;;;;;;0.10;0.10;;;;;;;;;;4910313;29;20048;-83
2023/05/12 03:25:46;;;;;;;0.13;0.13;;;;;;;;;;4923463;29;20033;-84
2023/05/12 03:28:12;;;;;;;0.15;0.15;;;;;;;;;;4910863;29;20039;-83
2023/05/12 03:30:37;;;;;;;0.10;0.10;;;;;;;;;;4926382;29;20050;-83
2023/05/12 03:33:02;;;;;;;0.10;0.10;;;;;;;;;;4923773;29;20055;-83
2023/05/12 03:35:28;;;;;;;0.20;0.20;;;;;;;;;;4917417;29;20042;-83
2023/05/12 03:37:53;;;;;;;0.10;0.10;;;;;;;;;;4915325;29;20039;-82
2023/05/12 03:40:18;;;;;;;0.10;0.10;;;;;;;;;;4923569;29;20103;-83
2023/05/12 03:42:44;;;;;;;0.20;0.20;;;;;;;;;;4940399;29;20075;-83
2023/05/12 03:45:10;;;;;;;0.10;0.10;;;;;;;;;;4905945;29;20481;-82
2023/05/12 03:47:35;;;;;;;0.30;0.30;;;;;;;;;;4922176;29;20055;-82
2023/05/12 03:50:01;;;;;;;0.10;0.10;;;;;;;;;;4902913;29;20032;-83
2023/05/12 03:52:26;;;;;;;0.70;0.45;;;;;;;;;;4921090;29;20500;-83
2023/05/12 03:54:52;;;;;;;0.15;0.15;;;;;;;;;;4913634;29;20036;-83
2023/05/12 03:57:17;;;;;;;0.15;0.15;;;;;;;;;;4917153;29;20119;-83
2023/05/12 03:59:42;;;;;;;0.20;0.20;;;;;;;;;;4923647;29;20042;-83
2023/05/12 04:02:10;;;;;;;0.10;0.10;;;;;;;;;;4937155;29;20030;-84
2023/05/12 04:04:37;;;;;;;0.10;0.10;;;;;;;;;;4922741;29;20095;-82
2023/05/12 04:07:02;;;;;;;0.20;0.20;;;;;;;;;;4913640;29;20055;-83
2023/05/12 04:09:30;;;;;;;0.32;0.32;;;;;;;;;;4921415;29;20039;-83
2023/05/12 04:11:55;;;;;;;0.10;0.10;;;;;;;;;;4923104;29;20079;-82
2023/05/12 04:14:21;;;;;;;0.10;0.10;;;;;;;;;;4918339;29;20111;-82
2023/05/12 04:16:47;;;;;;;0.10;0.10;;;;;;;;;;4911810;29;20039;-82
2023/05/12 04:19:12;;;;;;;0.13;0.13;;;;;;;;;;4916058;29;20028;-82
2023/05/12 04:21:37;;;;;;;0.20;0.20;;;;;;;;;;4919292;29;20131;-82
2023/05/12 04:24:03;;;;;;;0.10;0.10;;;;;;;;;;4929570;29;20043;-82
2023/05/12 04:26:28;;;;;;;0.13;0.13;;;;;;;;;;4918926;29;20102;-82
2023/05/12 04:28:54;;;;;;;0.10;0.10;;;;;;;;;;4923250;29;20047;-82
2023/05/12 04:31:19;;;;;;;0.13;0.13;;;;;;;;;;4919684;29;20028;-82
2023/05/12 04:33:44;;;;;;;0.17;0.17;;;;;;;;;;4923933;29;20070;-82
2023/05/12 04:36:12;;;;;;;0.10;0.10;;;;;;;;;;4921597;29;20059;-82
2023/05/12 04:38:38;;;;;;;0.20;0.20;;;;;;;;;;4906692;29;20087;-81
2023/05/12 04:41:21;;;;;;;0.10;0.10;;;;;;;;;;4908413;29;20144;-83
2023/05/12 04:43:46;;;;;;;0.10;0.10;;;;;;;;;;4926584;29;20030;-83
2023/05/12 04:46:12;;;;;;;0.10;0.10;;;;;;;;;;4908076;29;20032;-82
2023/05/12 04:48:40;;;;;;;0.10;0.10;;;;;;;;;;4927654;29;20027;-82
2023/05/12 04:51:06;;;;;;;0.10;0.10;;;;;;;;;;4914700;29;20083;-83
2023/05/12 04:53:33;;;;;;;0.10;0.10;;;;;;;;;;4921669;29;20032;-83
2023/05/12 04:55:59;;;;;;;0.10;0.10;;;;;;;;;;4908431;29;20028;-83
2023/05/12 04:58:24;;;;;;;0.17;0.17;;;;;;;;;;4913122;29;20040;-82
2023/05/12 05:00:50;;;;;;;0.10;0.10;;;;;;;;;;4920628;29;20092;-82
2023/05/12 05:03:15;;;;;;;0.10;0.10;;;;;;;;;;4920582;29;20032;-82
2023/05/12 05:05:40;;;;;;;0.10;0.10;;;;;;;;;;4898632;29;20056;-82
2023/05/12 05:08:06;;;;;;;0.10;0.10;;;;;;;;;;4910742;29;20056;-81
2023/05/12 05:10:31;;;;;;;0.10;0.10;;;;;;;;;;4923022;29;20115;-82
2023/05/12 05:12:56;;;;;;;0.15;0.15;;;;;;;;;;4919222;29;20111;-81
2023/05/12 05:15:22;;;;;;;0.20;0.20;;;;;;;;;;4902383;29;20083;-81
2023/05/12 05:17:48;;;;;;;0.20;0.20;;;;;;;;;;4914779;29;20404;-81
2023/05/12 05:20:14;;;;;;;0.10;0.10;;;;;;;;;;4932396;29;20027;-81
2023/05/12 05:22:39;;;;;;;0.10;0.10;;;;;;;;;;4920711;29;20028;-82
2023/05/12 05:25:06;;;;;;;0.20;0.20;;;;;;;;;;4922498;29;20028;-82
2023/05/12 05:27:31;;;;;;;0.43;0.43;;;;;;;;;;4918178;29;20032;-82
2023/05/12 05:29:56;;;;;;;0.20;0.20;;;;;;;;;;4934783;29;20078;-82
2023/05/12 05:32:22;;;;;;;0.10;0.10;;;;;;;;;;4933182;29;20043;-81
2023/05/12 05:34:47;;;;;;;0.20;0.20;;;;;;;;;;4920784;29;20076;-81
2023/05/12 05:37:12;;;;;;;0.20;0.20;;;;;;;;;;4909318;29;20096;-81
2023/05/12 05:39:38;;;;;;;0.22;0.22;;;;;;;;;;4922314;29;20034;-80
2023/05/12 05:42:03;;;;;;;0.20;0.20;;;;;;;;;;4915406;29;20024;-80
2023/05/12 05:44:28;;;;;;;0.10;0.10;;;;;;;;;;4930615;29;20028;-82
2023/05/12 05:46:54;;;;;;;0.10;0.10;;;;;;;;;;4908954;29;20036;-81
2023/05/12 05:49:19;;;;;;;0.10;0.10;;;;;;;;;;4926967;29;20063;-80
2023/05/12 05:51:44;;;;;;;0.10;0.10;;;;;;;;;;4929323;29;20111;-81
2023/05/12 05:54:10;;;;;;;0.10;0.10;;;;;;;;;;4935097;29;20082;-81
2023/05/12 05:56:36;;;;;;;0.10;0.10;;;;;;;;;;4912125;29;20033;-80
2023/05/12 05:59:03;;;;;;;0.10;0.10;;;;;;;;;;4924943;29;20083;-81
2023/05/12 06:01:29;;;;;;;0.10;0.10;;;;;;;;;;4923895;29;20031;-81
2023/05/12 06:03:54;;;;;;;0.10;0.10;;;;;;;;;;4916525;29;20028;-82
2023/05/12 06:06:19;;;;;;;0.10;0.10;;;;;;;;;;4909908;29;20032;-82
2023/05/12 06:08:45;;;;;;;0.10;0.10;;;;;;;;;;4928415;29;20052;-81
2023/05/12 06:11:10;;;;;;;0.13;0.13;;;;;;;;;;4928546;29;20024;-81
2023/05/12 06:13:36;;;;;;;0.10;0.10;;;;;;;;;;4916115;29;20027;-81
2023/05/12 06:16:01;;;;;;;0.10;0.10;;;;;;;;;;4917168;29;20024;-81
2023/05/12 06:18:27;;;;;;;0.10;0.10;;;;;;;;;;4916501;29;20424;-81
2023/05/12 06:20:52;;;;;;;0.10;0.10;;;;;;;;;;4927688;29;20047;-81
2023/05/12 06:23:17;;;;;;;0.10;0.10;;;;;;;;;;4921658;29;20032;-81
2023/05/12 06:25:43;;;;;;;0.10;0.10;;;;;;;;;;4921327;29;20070;-81
2023/05/12 06:28:08;;;;;;;0.10;0.10;;;;;;;;;;4919544;29;20055;-81
2023/05/12 06:30:33;;;;;;;0.10;0.10;;;;;;;;;;4921902;29;20043;-81
2023/05/12 06:32:59;;;;;;;0.10;0.10;;;;;;;;;;4921132;29;20023;-82
2023/05/12 06:35:25;;;;;;;0.10;0.10;;;;;;;;;;4924365;29;20119;-82
2023/05/12 06:37:50;;;;;;;0.10;0.10;;;;;;;;;;4917947;29;20382;-80
2023/05/12 06:40:16;;;;;;;0.10;0.10;;;;;;;;;;4928219;29;20024;-80
2023/05/12 06:42:41;;;;;;;0.10;0.10;;;;;;;;;;4919257;29;20090;-81
2023/05/12 06:45:07;;;;;;;0.10;0.10;;;;;;;;;;4911328;29;20063;-81
2023/05/12 06:47:33;;;;;;;0.38;0.38;;;;;;;;;;4908775;29;20036;-81
2023/05/12 06:49:58;;;;;;;0.10;0.10;;;;;;;;;;4922348;29;20027;-81
2023/05/12 06:52:23;;;;;;;0.10;0.10;;;;;;;;;;4922626;29;20020;-80
2023/05/12 06:54:49;;;;;;;0.40;0.40;;;;;;;;;;4924151;29;20032;-81
2023/05/12 06:57:15;;;;;;;0.20;0.20;;;;;;;;;;4910329;29;20021;-80
2023/05/12 06:59:40;;;;;;;0.20;0.20;;;;;;;;;;4924719;29;20028;-79
2023/05/12 07:02:05;;;;;;;0.10;0.10;;;;;;;;;;4923707;29;20035;-79
2023/05/12 07:04:31;;;;;;;0.10;0.10;;;;;;;;;;4923547;29;20040;-81
2023/05/12 07:06:56;;;;;;;0.20;0.20;;;;;;;;;;4913888;29;20033;-81
2023/05/12 07:09:21;;;;;;;0.10;0.10;;;;;;;;;;4918496;29;20495;-82
2023/05/12 07:11:47;;;;;;;0.10;0.10;;;;;;;;;;4916465;29;20096;-81
2023/05/12 07:14:12;;;;;;;0.10;0.10;;;;;;;;;;4919925;29;20483;-85
2023/05/12 07:16:38;;;;;;;0.15;0.15;;;;;;;;;;4908816;29;20073;-81
2023/05/12 07:19:05;;;;;;;0.10;0.10;;;;;;;;;;4910401;29;20105;-83
2023/05/12 07:21:30;;;;;;;0.10;0.10;;;;;;;;;;4934729;29;20091;-83
2023/05/12 07:23:56;;;;;;;0.10;0.10;;;;;;;;;;4934478;29;20063;-83
2023/05/12 07:26:23;;;;;;;0.10;0.10;;;;;;;;;;4903010;29;20056;-83
2023/05/12 07:28:48;;;;;;;0.10;0.10;;;;;;;;;;4901911;29;20511;-82
2023/05/12 07:31:14;;;;;;;0.10;0.10;;;;;;;;;;4916858;29;20044;-83
2023/05/12 07:33:39;;;;;;;0.10;0.10;;;;;;;;;;4925461;29;20927;-81
2023/05/12 07:36:05;;;;;;;0.20;0.20;;;;;;;;;;4917880;29;20059;-84
2023/05/12 07:38:31;;;;;;;0.10;0.10;;;;;;;;;;4920106;29;20032;-84
2023/05/12 07:40:57;;;;;;;0.10;0.10;;;;;;;;;;4930157;29;20032;-84
2023/05/12 07:43:22;;;;;;;0.20;0.20;;;;;;;;;;4933203;29;20056;-82
2023/05/12 07:45:48;;;;;;;0.10;0.10;;;;;;;;;;4916531;29;20087;-83
2023/05/12 07:48:13;;;;;;;0.10;0.10;;;;;;;;;;4918309;29;20048;-82
2023/05/12 07:50:39;;;;;;;0.10;0.10;;;;;;;;;;4929786;29;20115;-82
2023/05/12 07:53:05;;;;;;;0.10;0.10;;;;;;;;;;4917876;29;20024;-82
2023/05/12 07:55:32;;;;;;;0.10;0.10;;;;;;;;;;4916125;29;20408;-82
2023/05/12 07:57:57;;;;;;;2.90;0.52;;;;;;;;;;4917738;29;20439;-83
2023/05/12 08:00:22;;;;;;;0.10;0.10;;;;;;;;;;4923947;29;20035;-83
2023/05/12 08:02:48;;;;;;;0.10;0.10;;;;;;;;;;4945388;29;20040;-83
2023/05/12 08:05:13;;;;;;;0.10;0.10;;;;;;;;;;4913058;29;20087;-82
2023/05/12 08:07:42;;;;;;;0.10;0.10;;;;;;;;;;4913044;29;20040;-82
2023/05/12 08:10:09;;;;;;;0.10;0.10;;;;;;;;;;4928042;29;20027;-85
2023/05/12 08:12:34;;;;;;;0.10;0.10;;;;;;;;;;4934033;29;20048;-83
2023/05/12 08:15:00;;;;;;;0.10;0.10;;;;;;;;;;4907642;29;20023;-84
2023/05/12 08:17:25;;;;;;;0.10;0.10;;;;;;;;;;4915482;29;20032;-83
2023/05/12 08:19:50;;;;;;;0.10;0.10;;;;;;;;;;4911086;29;20027;-84
2023/05/12 08:22:16;;;;;;;0.10;0.10;;;;;;;;;;4915822;29;20036;-82
2023/05/12 08:24:41;;;;;;;0.10;0.10;;;;;;;;;;4913259;29;20793;-82
2023/05/12 08:27:07;;;;;;;0.10;0.10;;;;;;;;;;4917482;29;20038;-83
2023/05/12 08:29:33;;;;;;;0.10;0.10;;;;;;;;;;4932795;29;20428;-84
2023/05/12 08:31:58;;;;;;;0.10;0.10;;;;;;;;;;4900914;29;20028;-85
2023/05/12 08:34:24;;;;;;;0.10;0.10;;;;;;;;;;4930602;29;20521;-83
2023/05/12 08:36:51;;;;;;;0.10;0.10;;;;;;;;;;4910093;29;20035;-82
2023/05/12 08:39:17;;;;;;;0.10;0.10;;;;;;;;;;4922494;29;20032;-85
2023/05/12 08:41:51;;;;;;;0.20;0.20;;;;;;;;;;4919615;29;20042;-83
2023/05/12 08:44:18;;;;;;;0.10;0.10;;;;;;;;;;4927190;29;20036;-84
2023/05/12 08:46:44;;;;;;;0.10;0.10;;;;;;;;;;4926410;29;20195;-84
2023/05/12 08:49:15;;;;;;;0.10;0.10;;;;;;;;;;4907470;29;20106;-82
2023/05/12 08:51:43;;;;;;;0.00;0.00;;;;;;;;;;4934230;29;20080;-84
2023/05/12 08:54:11;;;;;;;0.10;0.10;;;;;;;;;;4919976;29;20115;-81
2023/05/12 08:56:37;;;;;;;0.00;0.00;;;;;;;;;;4914463;29;20032;-83
2023/05/12 08:59:05;;;;;;;2.08;0.20;;;;;;;;;;4910312;29;20024;-83
2023/05/12 09:01:33;;;;;;;0.10;0.10;;;;;;;;;;4918463;29;20024;-81
2023/05/12 09:03:59;;;;;;;0.05;0.05;;;;;;;;;;4922438;29;20032;-84
2023/05/12 09:06:24;;;;;;;0.10;0.10;;;;;;;;;;4932360;29;20146;-83
2023/05/12 09:08:50;;;;;;;0.28;0.28;;;;;;;;;;4926143;29;20020;-83
2023/05/12 09:11:17;;;;;;;1.65;0.30;;;;;;;;;;4904749;29;20116;-81
2023/05/12 09:14:05;;;;;;;0.00;0.00;;;;;;;;;;4913099;29;20387;-82
2023/05/12 09:16:44;;;;;;;0.10;0.10;;;;;;;;;;4906250;29;20452;-82
2023/05/12 09:19:09;;;;;;;0.10;0.10;;;;;;;;;;4924379;29;20099;-82
2023/05/12 09:21:35;;;;;;;0.15;0.15;;;;;;;;;;4928888;29;20070;-81
2023/05/12 09:24:06;;;;;;;0.10;0.10;;;;;;;;;;4923014;29;20051;-81
2023/05/12 09:26:46;;;;;;;0.10;0.10;;;;;;;;;;4913995;29;20032;-82
2023/05/12 09:29:12;;;;;;;0.00;0.00;;;;;;;;;;4914086;29;20119;-84
2023/05/12 09:31:37;;;;;;;0.10;0.10;;;;;;;;;;4906061;29;20075;-82
2023/05/12 09:34:07;;;;;;;0.10;0.10;;;;;;;;;;4916657;29;20459;-83
2023/05/12 09:36:33;;;;;;;0.10;0.10;;;;;;;;;;4912639;29;20056;-84
2023/05/12 09:39:06;;;;;;;0.10;0.10;;;;;;;;;;4917480;29;20024;-83
2023/05/12 09:41:50;;;;;;;0.10;0.10;;;;;;;;;;4924326;29;20032;-83
2023/05/12 09:44:16;;;;;;;0.10;0.10;;;;;;;;;;4904576;29;20024;-83
2023/05/12 09:46:41;;;;;;;5.90;0.75;;;;;;;;;;4910268;29;20126;-83
2023/05/12 09:49:06;;;;;;;0.10;0.10;;;;;;;;;;4932613;29;20115;-82
2023/05/12 09:51:32;;;;;;;0.20;0.20;;;;;;;;;;4940062;29;20531;-83
2023/05/12 09:53:58;;;;;;;0.10;0.10;;;;;;;;;;4913016;29;20443;-84
2023/05/12 09:56:26;;;;;;;0.43;0.43;;;;;;;;;;4929213;29;20031;-84
2023/05/12 09:58:53;;;;;;;0.10;0.10;;;;;;;;;;4914388;29;20051;-85
2023/05/12 10:01:20;;;;;;;0.00;0.00;;;;;;;;;;4904113;29;20480;-84
2023/05/12 10:03:49;;;;;;;0.95;0.30;;;;;;;;;;4901447;29;20036;-86
2023/05/12 10:06:27;;;;;;;0.00;0.00;;;;;;;;;;4905522;29;20023;-86
2023/05/12 10:09:23;;;;;;;0.10;0.10;;;;;;;;;;4934117;29;20039;-86
2023/05/12 10:11:50;;;;;;;0.10;0.10;;;;;;;;;;4903976;29;20079;-84
2023/05/12 10:14:16;;;;;;;0.03;0.03;;;;;;;;;;4927584;29;20087;-85
2023/05/12 10:16:46;;;;;;;0.10;0.10;;;;;;;;;;4918874;29;20060;-85
2023/05/12 10:19:13;;;;;;;0.10;0.10;;;;;;;;;;4939884;29;20027;-84
2023/05/12 10:21:41;;;;;;;0.00;0.00;;;;;;;;;;4926804;29;20032;-85
2023/05/12 10:24:07;;;;;;;0.10;0.10;;;;;;;;;;4937304;29;20028;-84
2023/05/12 10:26:33;;;;;;;0.00;0.00;;;;;;;;;;4904822;29;20091;-86
2023/05/12 10:28:59;;;;;;;0.30;0.30;;;;;;;;;;4914696;29;20044;-85
2023/05/12 10:31:26;;;;;;;0.10;0.10;;;;;;;;;;4904997;29;20529;-83
2023/05/12 10:33:59;;;;;;;0.00;0.00;;;;;;;;;;4905309;29;20032;-84
2023/05/12 10:36:25;;;;;;;0.10;0.10;;;;;;;;;;4926877;29;20031;-84
2023/05/12 10:38:51;;;;;;;0.08;0.08;;;;;;;;;;4908232;29;20109;-84
2023/05/12 10:41:27;;;;;;;0.10;0.10;;;;;;;;;;4932183;29;20028;-85
2023/05/12 10:43:52;;;;;;;0.10;0.10;;;;;;;;;;4934629;29;20039;-79
2023/05/12 10:46:19;;;;;;;0.10;0.10;;;;;;;;;;4915413;29;20332;-79
2023/05/12 10:49:11;;;;;;;0.10;0.10;;;;;;;;;;4914934;29;20032;-79
2023/05/12 10:51:36;;;;;;;0.00;0.00;;;;;;;;;;4914414;29;20024;-80
2023/05/12 10:54:06;;;;;;;0.20;0.20;;;;;;;;;;4920483;29;20039;-80
2023/05/12 10:56:38;;;;;;;0.10;0.10;;;;;;;;;;4920350;29;20491;-78
2023/05/12 10:59:11;;;;;;;0.10;0.10;;;;;;;;;;4933978;29;20039;-79
2023/05/12 11:01:37;;;;;;;0.10;0.10;;;;;;;;;;4930039;29;20051;-78
2023/05/12 11:04:14;;;;;;;0.10;0.10;;;;;;;;;;4923437;29;20067;-80
2023/05/12 11:06:41;;;;;;;0.10;0.10;;;;;;;;;;4902878;29;20114;-79
2023/05/12 11:09:06;;;;;;;0.10;0.10;;;;;;;;;;4918844;29;20028;-79
2023/05/12 11:11:32;;;;;;;0.10;0.10;;;;;;;;;;4930830;29;20035;-79
2023/05/12 11:13:57;;;;;;;0.03;0.03;;;;;;;;;;4921956;29;20043;-79
2023/05/12 11:16:23;;;;;;;0.10;0.10;;;;;;;;;;4924178;29;20047;-80
2023/05/12 11:19:05;;;;;;;0.10;0.10;;;;;;;;;;4919723;29;20103;-79
2023/05/12 11:21:31;;;;;;;0.10;0.10;;;;;;;;;;4922735;29;20032;-79
2023/05/12 11:23:58;;;;;;;0.10;0.10;;;;;;;;;;4925307;29;20070;-78
2023/05/12 11:26:24;;;;;;;0.10;0.10;;;;;;;;;;4914940;29;20546;-79
2023/05/12 11:28:49;;;;;;;0.10;0.10;;;;;;;;;;4920126;29;20087;-79
2023/05/12 11:31:19;;;;;;;0.10;0.10;;;;;;;;;;4922717;29;20087;-81
2023/05/12 11:33:44;;;;;;;0.10;0.10;;;;;;;;;;4900811;29;20084;-80
2023/05/12 11:36:10;;;;;;;0.10;0.10;;;;;;;;;;4918011;29;20023;-80
2023/05/12 11:38:35;;;;;;;0.10;0.10;;;;;;;;;;4920262;29;20024;-81
2023/05/12 11:41:01;;;;;;;0.00;0.00;;;;;;;;;;4927966;29;20112;-79
2023/05/12 11:43:27;;;;;;;0.30;0.30;;;;;;;;;;4930105;29;20067;-78
2023/05/12 11:45:54;;;;;;;0.30;0.30;;;;;;;;;;4919374;29;20027;-78
2023/05/12 11:48:20;;;;;;;0.10;0.10;;;;;;;;;;4933153;29;20031;-80
2023/05/12 11:50:46;;;;;;;0.10;0.10;;;;;;;;;;4920698;29;20024;-81
2023/05/12 11:53:14;;;;;;;0.10;0.10;;;;;;;;;;4908912;29;20154;-80
2023/05/12 11:55:50;;;;;;;0.13;0.13;;;;;;;;;;4916096;29;20024;-80
2023/05/12 11:58:20;;;;;;;0.00;0.00;;;;;;;;;;4914150;29;20057;-80
2023/05/12 12:00:47;;;;;;;0.00;0.00;;;;;;;;;;4912302;29;20493;-82
2023/05/12 12:03:14;;;;;;;0.10;0.10;;;;;;;;;;4934208;29;20384;-81
2023/05/12 12:05:42;;;;;;;0.10;0.10;;;;;;;;;;4911228;29;20060;-82
2023/05/12 12:08:11;;;;;;;0.08;0.08;;;;;;;;;;4919193;29;20063;-81
2023/05/12 12:10:37;;;;;;;0.00;0.00;;;;;;;;;;4926302;29;20051;-82
2023/05/12 12:13:02;;;;;;;0.10;0.10;;;;;;;;;;4917688;29;20024;-80
2023/05/12 12:15:28;;;;;;;0.15;0.15;;;;;;;;;;4908692;29;20451;-80
2023/05/12 12:17:53;;;;;;;0.00;0.00;;;;;;;;;;4919061;29;20111;-78
2023/05/12 12:20:19;;;;;;;0.13;0.13;;;;;;;;;;4910766;29;20047;-81
2023/05/12 12:22:44;;;;;;;0.00;0.00;;;;;;;;;;4918116;29;20079;-79
2023/05/12 12:25:09;;;;;;;0.00;0.00;;;;;;;;;;4917035;29;20032;-81
2023/05/12 12:27:35;;;;;;;0.10;0.10;;;;;;;;;;4932585;29;20024;-81
2023/05/12 12:30:01;;;;;;;0.10;0.10;;;;;;;;;;4918400;29;20091;-81
2023/05/12 12:32:26;;;;;;;0.00;0.00;;;;;;;;;;4921633;29;20023;-78
2023/05/12 12:34:52;;;;;;;0.00;0.00;;;;;;;;;;4902632;29;20376;-81
2023/05/12 12:37:17;;;;;;;0.00;0.00;;;;;;;;;;4904080;29;20138;-83
2023/05/12 12:39:43;;;;;;;0.05;0.05;;;;;;;;;;4908147;29;20456;-83
2023/05/12 12:42:08;;;;;;;0.10;0.10;;;;;;;;;;4915234;29;20029;-81
2023/05/12 12:44:34;;;;;;;0.10;0.10;;;;;;;;;;4905222;29;20097;-81
2023/05/12 12:46:59;;;;;;;0.10;0.10;;;;;;;;;;4917487;29;20087;-81
2023/05/12 12:49:24;;;;;;;0.10;0.10;;;;;;;;;;4931721;29;20046;-82
2023/05/12 12:51:50;;;;;;;0.05;0.05;;;;;;;;;;4936814;29;20043;-81
2023/05/12 12:54:15;;;;;;;0.10;0.10;;;;;;;;;;4925332;29;20052;-81
2023/05/12 12:56:43;;;;;;;0.10;0.10;;;;;;;;;;4918795;29;20046;-81
2023/05/12 12:59:08;;;;;;;0.10;0.10;;;;;;;;;;4905275;29;20033;-82
2023/05/12 13:01:33;;;;;;;0.10;0.10;;;;;;;;;;4921411;29;20395;-82
2023/05/12 13:03:59;;;;;;;0.20;0.20;;;;;;;;;;4922986;29;20028;-81
2023/05/12 13:06:24;;;;;;;0.10;0.10;;;;;;;;;;4950350;29;20055;-81
2023/05/12 13:08:50;;;;;;;0.10;0.10;;;;;;;;;;4947795;29;20040;-81
2023/05/12 13:11:16;;;;;;;0.00;0.00;;;;;;;;;;4913311;29;20369;-82
2023/05/12 13:13:41;;;;;;;0.10;0.10;;;;;;;;;;4907320;29;20103;-83
2023/05/12 13:16:07;;;;;;;0.10;0.10;;;;;;;;;;4926357;29;20031;-83
2023/05/12 13:18:32;;;;;;;0.10;0.10;;;;;;;;;;4910240;29;20035;-83
2023/05/12 13:20:58;;;;;;;0.30;0.30;;;;;;;;;;4925740;29;20103;-82
2023/05/12 13:23:23;;;;;;;0.10;0.10;;;;;;;;;;4922335;29;20368;-82
2023/05/12 13:25:50;;;;;;;0.10;0.10;;;;;;;;;;4902145;29;20100;-82
2023/05/12 13:28:16;;;;;;;0.10;0.10;;;;;;;;;;4920891;29;20023;-82
2023/05/12 13:30:42;;;;;;;0.10;0.10;;;;;;;;;;4924460;29;20035;-81
2023/05/12 13:33:08;;;;;;;0.35;0.35;;;;;;;;;;4918744;29;20027;-81
2023/05/12 13:35:33;;;;;;;0.40;0.40;;;;;;;;;;4901593;29;20395;-81
2023/05/12 13:37:59;;;;;;;0.10;0.10;;;;;;;;;;4922149;29;20387;-81
2023/05/12 13:40:24;;;;;;;0.10;0.10;;;;;;;;;;4916230;29;20034;-80
2023/05/12 13:42:50;;;;;;;0.10;0.10;;;;;;;;;;4922810;29;20036;-80
2023/05/12 13:45:15;;;;;;;0.00;0.00;;;;;;;;;;4921955;29;20044;-80
2023/05/12 13:47:40;;;;;;;0.10;0.10;;;;;;;;;;4935605;29;20035;-81
2023/05/12 13:50:06;;;;;;;0.10;0.10;;;;;;;;;;4937919;29;20031;-81
2023/05/12 13:52:32;;;;;;;0.17;0.17;;;;;;;;;;4903961;29;20032;-81
2023/05/12 13:54:57;;;;;;;0.32;0.28;;;;;;;;;;4913347;29;20027;-79
2023/05/12 13:57:23;;;;;;;0.10;0.10;;;;;;;;;;4917187;29;20048;-81
2023/05/12 13:59:50;;;;;;;0.08;0.08;;;;;;;;;;4918123;29;20495;-81
2023/05/12 14:02:16;;;;;;;0.00;0.00;;;;;;;;;;4909845;29;20036;-81
2023/05/12 14:04:41;;;;;;;0.20;0.20;;;;;;;;;;4923048;29;20060;-81
2023/05/12 14:07:06;;;;;;;0.10;0.10;;;;;;;;;;4918213;29;20035;-81
2023/05/12 14:09:32;;;;;;;0.08;0.08;;;;;;;;;;4935645;29;20495;-81
2023/05/12 14:11:58;;;;;;;0.03;0.03;;;;;;;;;;4920529;29;21617;-81
2023/05/12 14:14:24;;;;;;;0.13;0.13;;;;;;;;;;4924892;29;20039;-81
2023/05/12 14:16:49;;;;;;;0.10;0.10;;;;;;;;;;4923621;29;20088;-81
2023/05/12 14:19:15;;;;;;;0.05;0.05;;;;;;;;;;4920595;29;20121;-81
2023/05/12 14:21:40;;;;;;;0.20;0.20;;;;;;;;;;4932314;29;20127;-79
2023/05/12 14:24:07;;;;;;;0.10;0.10;;;;;;;;;;4925699;29;20040;-80
2023/05/12 14:26:33;;;;;;;0.10;0.10;;;;;;;;;;4927409;29;20040;-87
2023/05/12 14:28:58;;;;;;;0.00;0.00;;;;;;;;;;4931129;29;20554;-80
2023/05/12 14:31:24;;;;;;;0.30;0.30;;;;;;;;;;4929591;29;20059;-81
2023/05/12 14:33:51;;;;;;;0.20;0.20;;;;;;;;;;4927453;29;20054;-80
2023/05/12 14:36:17;;;;;;;0.35;0.35;;;;;;;;;;4921990;29;20031;-82
2023/05/12 14:38:42;;;;;;;0.10;0.10;;;;;;;;;;4915028;29;20553;-80